Time;durP1;ratioP1;P1;durP2;ratioP2;P2;SDS_P1;SDS_P2;PMS_P1;PMS_P2;Temp;Humidity;BMP_temperature;BMP_pressure;BME280_temperature;BME280_humidity;BME280_pressure;Samples;Min_cycle;Max_cycle;Signal;HPM_P1;HPM_P2
2022/07/19 00:09:47;;;;;;;4.20;2.70;;;21.90;96.40;;;;;;20778181;28;19913;-77
2022/07/19 00:19:48;;;;;;;4.03;2.40;;;21.70;97.00;;;;;;20769993;28;20364;-76
2022/07/19 00:29:49;;;;;;;2.63;2.13;;;21.70;96.60;;;;;;20772479;28;20296;-76
2022/07/19 00:39:50;;;;;;;3.07;1.97;;;21.70;96.70;;;;;;20754400;28;20445;-77
2022/07/19 00:49:51;;;;;;;3.77;2.43;;;21.60;96.50;;;;;;20753042;28;20042;-77
2022/07/19 00:59:54;;;;;;;2.47;1.77;;;21.10;97.60;;;;;;20768078;28;20124;-76
2022/07/19 01:09:55;;;;;;;6.22;2.45;;;21.20;97.30;;;;;;20769341;28;20099;-77
2022/07/19 01:19:56;;;;;;;5.50;2.33;;;21.00;98.00;;;;;;20782783;28;20449;-77
2022/07/19 01:29:57;;;;;;;4.73;1.73;;;21.00;97.60;;;;;;20750137;28;20502;-77
2022/07/19 01:39:58;;;;;;;6.67;2.23;;;20.90;97.60;;;;;;20749251;28;20512;-77
2022/07/19 01:49:59;;;;;;;6.20;2.03;;;20.90;97.80;;;;;;20766812;28;20517;-77
2022/07/19 01:59:59;;;;;;;6.17;2.00;;;20.70;98.10;;;;;;20749607;28;20605;-77
2022/07/19 02:10:00;;;;;;;2.80;2.00;;;20.60;97.80;;;;;;20783753;28;20042;-77
2022/07/19 02:20:02;;;;;;;2.60;1.90;;;20.50;98.20;;;;;;20783117;28;20093;-77
2022/07/19 02:30:04;;;;;;;6.60;2.08;;;20.40;98.90;;;;;;20780087;28;20112;-77
2022/07/19 02:40:06;;;;;;;4.22;2.05;;;20.30;99.30;;;;;;20787768;28;20105;-77
2022/07/19 02:50:07;;;;;;;3.17;2.15;;;19.90;99.90;;;;;;20774057;28;20034;-76
2022/07/19 03:00:09;;;;;;;4.60;2.20;;;20.00;99.90;;;;;;20738698;28;20069;-76
2022/07/19 03:10:10;;;;;;;6.05;1.92;;;19.90;99.90;;;;;;20736939;28;20050;-76
2022/07/19 03:20:11;;;;;;;3.67;2.47;;;19.40;99.90;;;;;;20775944;28;20074;-76
2022/07/19 03:30:12;;;;;;;3.20;2.40;;;18.90;99.90;;;;;;20775318;28;20037;-76
2022/07/19 03:40:13;;;;;;;4.30;2.43;;;18.80;99.90;;;;;;20775209;28;20223;-77
2022/07/19 03:50:14;;;;;;;5.30;2.40;;;18.80;99.90;;;;;;20755660;28;20056;-77
2022/07/19 04:00:15;;;;;;;5.80;3.03;;;18.60;99.90;;;;;;20791684;28;20041;-77
2022/07/19 04:10:16;;;;;;;5.68;2.65;;;18.40;99.90;;;;;;20766042;28;20077;-77
2022/07/19 04:20:16;;;;;;;4.67;2.53;;;18.60;99.90;;;;;;20731543;28;20085;-77
2022/07/19 04:30:18;;;;;;;4.57;2.53;;;18.30;99.90;;;;;;20764919;28;20038;-76
2022/07/19 04:40:18;;;;;;;3.73;2.00;;;18.40;99.90;;;;;;20771558;28;20069;-76
2022/07/19 04:50:20;;;;;;;2.90;2.17;;;19.00;99.90;;;;;;20756279;28;20534;-77
2022/07/19 05:00:20;;;;;;;4.27;2.97;;;19.00;99.90;;;;;;20753433;28;20053;-76
2022/07/19 05:10:21;;;;;;;4.13;3.17;;;19.00;99.90;;;;;;20750006;28;20081;-77
2022/07/19 05:20:22;;;;;;;5.07;2.30;;;19.40;99.90;;;;;;20744383;28;20446;-77
2022/07/19 05:30:23;;;;;;;6.87;3.07;;;19.60;99.90;;;;;;20744945;28;20057;-77
2022/07/19 05:40:24;;;;;;;9.17;2.57;;;20.00;99.90;;;;;;20749892;28;20480;-78
2022/07/19 05:50:25;;;;;;;11.80;2.77;;;20.40;99.90;;;;;;20745007;28;20053;-78
2022/07/19 06:00:26;;;;;;;6.60;2.90;;;20.50;99.90;;;;;;20741020;28;20077;-78
2022/07/19 06:10:27;;;;;;;3.07;2.77;;;20.70;99.90;;;;;;20732342;28;20040;-76
2022/07/19 06:20:27;;;;;;;7.17;2.67;;;21.00;99.90;;;;;;20742872;28;20057;-77
2022/07/19 06:30:28;;;;;;;5.50;2.27;;;21.30;99.90;;;;;;20741670;28;20041;-75
2022/07/19 06:40:29;;;;;;;3.03;2.43;;;21.90;99.90;;;;;;20742572;28;20120;-77
2022/07/19 06:50:30;;;;;;;7.40;2.40;;;22.30;99.90;;;;;;20741237;28;20103;-76
2022/07/19 07:00:31;;;;;;;4.75;2.33;;;22.80;99.90;;;;;;20748623;28;20430;-76
2022/07/19 07:10:32;;;;;;;4.53;2.00;;;23.50;99.90;;;;;;20755618;28;20037;-76
2022/07/19 07:20:34;;;;;;;7.20;2.45;;;24.30;99.90;;;;;;20757419;28;20045;-76
2022/07/19 07:30:34;;;;;;;3.95;2.13;;;24.70;99.90;;;;;;20771574;28;20045;-76
2022/07/19 07:40:35;;;;;;;;;;;25.40;99.80;;;;;;20755846;28;20459;-76
2022/07/19 07:50:36;;;;;;;7.17;2.40;;;26.10;99.90;;;;;;20750436;28;19917;-76
2022/07/19 08:00:38;;;;;;;4.32;2.10;;;26.90;98.80;;;;;;20736629;28;20379;-76
2022/07/19 08:10:39;;;;;;;4.47;1.85;;;27.40;97.20;;;;;;20753531;28;20041;-76
2022/07/19 08:20:40;;;;;;;5.38;2.17;;;28.00;97.40;;;;;;20753947;28;20044;-77
2022/07/19 08:30:41;;;;;;;2.90;1.70;;;29.40;95.30;;;;;;20753267;28;20046;-76
2022/07/19 08:40:43;;;;;;;5.70;1.80;;;29.40;94.70;;;;;;20735234;28;20067;-76
2022/07/19 08:50:46;;;;;;;6.75;1.95;;;29.20;94.10;;;;;;20749707;28;20121;-76
2022/07/19 09:00:47;;;;;;;3.38;1.80;;;29.70;92.70;;;;;;20735080;28;20122;-77
2022/07/19 09:21:08;;;;;;;4.97;1.60;;;32.50;91.10;;;;;;20751043;28;20072;-77
2022/07/19 09:31:09;;;;;;;5.93;1.77;;;32.80;87.20;;;;;;20748099;28;20042;-76
2022/07/19 09:41:18;;;;;;;5.80;1.73;;;32.70;89.00;;;;;;20765266;28;20034;-76
2022/07/19 09:51:20;;;;;;;4.22;2.10;;;31.90;90.10;;;;;;20743191;28;20313;-76
2022/07/19 10:01:22;;;;;;;6.07;1.92;;;33.00;89.70;;;;;;20742489;28;20045;-76
2022/07/19 10:11:23;;;;;;;8.13;1.65;;;33.30;87.90;;;;;;20742582;28;20048;-76
2022/07/19 10:21:24;;;;;;;3.03;1.60;;;33.70;88.10;;;;;;20741965;28;20046;-76
2022/07/19 10:31:30;;;;;;;3.35;1.40;;;34.80;86.80;;;;;;20743353;28;20038;-77
2022/07/19 10:41:31;;;;;;;5.35;1.67;;;34.40;83.40;;;;;;20739380;28;20046;-76
2022/07/19 10:51:34;;;;;;;2.10;1.40;;;35.60;81.10;;;;;;20771164;28;20046;-76
2022/07/19 11:01:36;;;;;;;4.63;1.80;;;34.70;81.00;;;;;;20755764;28;20417;-76
2022/07/19 11:11:37;;;;;;;3.67;2.55;;;35.90;79.90;;;;;;20738291;28;20095;-77
2022/07/19 11:21:41;;;;;;;5.03;1.73;;;35.40;79.90;;;;;;20756897;28;20074;-77
2022/07/19 11:31:47;;;;;;;2.95;1.40;;;36.10;78.70;;;;;;20756090;28;20066;-77
2022/07/19 11:41:48;;;;;;;5.07;1.50;;;35.60;80.30;;;;;;20755315;28;20077;-77
2022/07/19 11:51:59;;;;;;;7.30;1.88;;;37.50;78.60;;;;;;20755983;28;20133;-76
2022/07/19 12:02:00;;;;;;;3.50;1.48;;;36.20;76.90;;;;;;20736439;28;20042;-77
2022/07/19 12:12:13;;;;;;;9.57;1.38;;;37.20;73.80;;;;;;20769026;28;20030;-77
2022/07/19 12:22:37;;;;;;;2.97;1.80;;;37.90;75.20;;;;;;20750756;28;20034;-76
2022/07/19 12:32:42;;;;;;;6.07;1.50;;;38.10;73.00;;;;;;20754648;28;20410;-76
2022/07/19 12:42:50;;;;;;;5.03;1.77;;;37.30;73.60;;;;;;20766729;28;20045;-77
2022/07/19 12:52:52;;;;;;;11.17;1.90;;;37.00;71.70;;;;;;20743837;28;20050;-77
2022/07/19 13:02:54;;;;;;;5.28;2.10;;;37.90;70.10;;;;;;20741065;28;20057;-75
2022/07/19 13:12:55;;;;;;;7.95;1.73;;;37.50;69.20;;;;;;20733232;28;20046;-76
2022/07/19 13:22:56;;;;;;;5.70;1.65;;;37.50;73.20;;;;;;20692351;28;20042;-75
2022/07/19 13:32:57;;;;;;;5.72;1.50;;;37.60;70.20;;;;;;20654495;28;20045;-75
2022/07/19 13:42:58;;;;;;;3.43;1.60;;;38.30;69.10;;;;;;20671525;28;20042;-75
2022/07/19 13:53:01;;;;;;;4.32;1.33;;;37.20;66.20;;;;;;20649114;28;20281;-75
2022/07/19 14:03:02;;;;;;;12.15;1.63;;;37.60;69.50;;;;;;20652219;28;20046;-75
2022/07/19 14:13:03;;;;;;;9.45;1.75;;;36.60;67.10;;;;;;20685275;28;20402;-75
2022/07/19 14:23:04;;;;;;;5.90;1.42;;;37.90;66.60;;;;;;20731430;28;20046;-75
2022/07/19 14:33:05;;;;;;;4.43;1.80;;;37.80;66.00;;;;;;20741958;28;20034;-75
2022/07/19 14:43:07;;;;;;;12.50;2.72;;;36.40;66.60;;;;;;20745409;28;20048;-76
2022/07/19 14:53:10;;;;;;;10.00;4.20;;;37.20;68.00;;;;;;20726950;28;20045;-75
2022/07/19 15:03:11;;;;;;;3.85;1.70;;;37.30;65.10;;;;;;20738636;28;20046;-74
2022/07/19 15:13:12;;;;;;;5.97;2.00;;;37.20;66.60;;;;;;20726527;28;20033;-76
2022/07/19 15:23:13;;;;;;;6.65;1.77;;;38.00;66.10;;;;;;20721463;28;20285;-74
2022/07/19 15:33:14;;;;;;;3.63;1.50;;;37.30;65.30;;;;;;20713054;28;20243;-74
2022/07/19 15:43:16;;;;;;;5.25;1.70;;;37.20;64.30;;;;;;20749681;28;20280;-74
2022/07/19 15:53:17;;;;;;;6.00;1.60;;;36.90;65.80;;;;;;20709185;28;20049;-74
2022/07/19 16:03:18;;;;;;;5.28;1.55;;;37.00;65.10;;;;;;20726028;28;20053;-74
2022/07/19 16:13:19;;;;;;;6.47;1.60;;;36.50;63.20;;;;;;20712713;28;20108;-74
2022/07/19 16:23:20;;;;;;;4.70;1.35;;;36.20;62.80;;;;;;20729453;28;20050;-74
2022/07/19 16:33:21;;;;;;;4.95;1.15;;;36.00;63.00;;;;;;20726418;28;20041;-74
2022/07/19 16:43:22;;;;;;;8.15;1.40;;;35.70;62.30;;;;;;20721324;28;20038;-74
2022/07/19 16:53:23;;;;;;;8.18;1.40;;;35.60;59.60;;;;;;20722013;28;20038;-74
2022/07/19 17:03:23;;;;;;;4.53;1.67;;;35.60;66.80;;;;;;20724333;28;20042;-74
2022/07/19 17:13:25;;;;;;;4.20;1.20;;;35.20;65.80;;;;;;20722277;28;20470;-74
2022/07/19 17:23:26;;;;;;;5.45;1.23;;;35.00;64.30;;;;;;20682891;28;20402;-74
2022/07/19 17:33:27;;;;;;;4.70;1.70;;;34.80;72.70;;;;;;20707357;28;20041;-75
2022/07/19 17:43:27;;;;;;;2.97;1.38;;;34.50;67.30;;;;;;20696533;28;20372;-75
2022/07/19 17:53:28;;;;;;;5.72;1.95;;;34.10;77.10;;;;;;20704723;28;20053;-75
2022/07/19 18:03:29;;;;;;;4.75;1.98;;;33.80;74.70;;;;;;20705441;28;20395;-75
2022/07/19 18:13:30;;;;;;;5.38;1.50;;;33.60;70.80;;;;;;20708918;28;20038;-74
2022/07/19 18:23:31;;;;;;;8.95;2.05;;;32.90;76.50;;;;;;20718205;28;20065;-74
2022/07/19 18:33:32;;;;;;;4.78;2.75;;;32.20;76.90;;;;;;20715328;28;20041;-74
2022/07/19 18:43:32;;;;;;;4.72;1.70;;;31.40;76.40;;;;;;20721059;28;20087;-74
2022/07/19 18:53:39;;;;;;;9.88;1.95;;;30.30;77.60;;;;;;20686691;28;20089;-74
2022/07/19 19:03:40;;;;;;;6.45;1.70;;;29.80;79.40;;;;;;20731304;28;20042;-74
2022/07/19 19:13:41;;;;;;;6.63;2.03;;;29.70;77.80;;;;;;20734306;28;20038;-74
2022/07/19 19:23:42;;;;;;;8.55;1.80;;;29.50;77.60;;;;;;20718997;28;20041;-75
2022/07/19 19:33:43;;;;;;;7.85;2.42;;;29.40;77.50;;;;;;20710123;28;20088;-76
2022/07/19 19:43:43;;;;;;;14.20;2.50;;;28.90;79.90;;;;;;20708125;28;20034;-77
2022/07/19 19:53:44;;;;;;;12.07;1.92;;;27.00;86.20;;;;;;20709938;28;20042;-77
2022/07/19 20:03:45;;;;;;;;;;;25.80;89.10;;;;;;20757032;28;20037;-77
2022/07/19 20:13:46;;;;;;;27.27;3.17;;;26.30;86.10;;;;;;20710492;28;19917;-77
2022/07/19 20:23:47;;;;;;;;;;;25.60;88.70;;;;;;20707364;28;20299;-77
2022/07/19 20:33:47;;;;;;;7.10;2.03;;;25.20;90.00;;;;;;20709139;28;20293;-76
2022/07/19 20:43:48;;;;;;;3.33;2.03;;;24.60;90.60;;;;;;20721027;28;20117;-77
2022/07/19 20:53:49;;;;;;;6.13;2.00;;;24.20;91.50;;;;;;20721004;28;20056;-76
2022/07/19 21:03:50;;;;;;;5.83;1.83;;;23.60;92.30;;;;;;20727979;28;20506;-76
2022/07/19 21:13:51;;;;;;;8.80;3.07;;;23.40;92.40;;;;;;20707740;28;20061;-76
2022/07/19 21:23:52;;;;;;;8.20;2.43;;;23.80;91.20;;;;;;20702583;28;20308;-76
2022/07/19 21:34:01;;;;;;;4.40;2.00;;;24.20;90.80;;;;;;20701250;28;20050;-77
2022/07/19 21:44:03;;;;;;;9.63;2.20;;;24.20;91.10;;;;;;20697874;28;20041;-76
2022/07/19 21:54:04;;;;;;;6.53;2.25;;;23.70;91.40;;;;;;20682739;28;20451;-76
2022/07/19 22:04:05;;;;;;;3.83;2.00;;;23.10;93.00;;;;;;20739375;28;20096;-75
2022/07/19 22:14:06;;;;;;;5.50;2.17;;;22.90;92.90;;;;;;20742051;28;20080;-77
2022/07/19 22:24:07;;;;;;;4.40;2.45;;;22.90;92.90;;;;;;20741400;28;20041;-77
2022/07/19 22:34:08;;;;;;;2.43;2.13;;;23.50;90.60;;;;;;20755279;28;20491;-76
2022/07/19 22:44:09;;;;;;;7.13;2.03;;;23.80;90.20;;;;;;20756436;28;20706;-77
2022/07/19 22:54:10;;;;;;;9.40;2.60;;;24.00;89.40;;;;;;20755481;28;20125;-77
2022/07/19 23:04:11;;;;;;;5.13;1.97;;;24.30;87.80;;;;;;20737737;28;20292;-77
2022/07/19 23:14:11;;;;;;;6.50;2.15;;;24.20;87.70;;;;;;20754205;28;20092;-76
2022/07/19 23:24:13;;;;;;;8.70;1.92;;;24.00;88.70;;;;;;20719705;28;20038;-77
2022/07/19 23:34:13;;;;;;;;;;;23.70;89.10;;;;;;20753256;28;20040;-77
2022/07/19 23:44:14;;;;;;;2.80;1.73;;;23.60;90.00;;;;;;20751117;28;19913;-76
2022/07/19 23:54:15;;;;;;;8.63;2.30;;;23.40;90.00;;;;;;20751332;28;20116;-76
